Federal Trident — V7NJ6 — position and weather

sailwx.info

Track history (hours):
 
Tides and Currents Weather Stations Pressure Air Temp Water Temp Dewpoint Dewpoint Depression Visibility Wind Speed Wind Dir Waves Ship Positions

Federal Trident

Last reported at 2018-Jun-19 09:09 UTC. Time now 2018-Jun-23 14:10 UTC.
Position N 01°24' E 104°32'.

Length 190 m; draft 12.7 m.

Type: Cargo ship. MMSI: 538006466.

Date/timePositionNaut miles runAvg speedWind from/ knotsBaromVisibWave heightAir tempDewpointWater temp
2018-Jun-19 09:09N 01°24' E 104°32'212.8
2018-Jun-19 08:59N 01°24' E 104°30'612.3
2018-Jun-19 08:28N 01°21' E 104°24'612.0
2018-Jun-19 07:58N 01°17' E 104°20'612.3
2018-Jun-19 07:29N 01°16' E 104°14'612.6
2018-Jun-19 07:00N 01°15' E 104°08'510.2
2018-Jun-19 06:30N 01°15' E 104°03'4 7.5
2018-Jun-19 05:59N 01°17' E 103°59'0 0.7
2018-Jun-19 05:18N 01°18' E 103°60'0 0.0
2018-Jun-19 04:57N 01°18' E 103°60'0 0.0
2018-Jun-19 04:30N 01°18' E 103°60'0 0.0
2018-Jun-19 03:48N 01°18' E 103°60'0 0.0
2018-Jun-19 03:30N 01°18' E 103°60'0 0.0
2018-Jun-19 02:51N 01°18' E 103°60'0 0.0
2018-Jun-19 02:24N 01°18' E 103°60'0 0.0
2018-Jun-19 01:57N 01°18' E 103°60'0 0.0
2018-Jun-19 01:27N 01°18' E 103°60'0 0.1
2018-Jun-19 00:56N 01°18' E 103°60'0 0.0
2018-Jun-19 00:29N 01°18' E 103°60'0 0.0
2018-Jun-18 23:57N 01°18' E 103°60'0 0.1
2018-Jun-18 23:30N 01°18' E 103°60'0 0.0
2018-Jun-18 22:51N 01°18' E 103°60'0 0.0
2018-Jun-18 22:30N 01°18' E 103°60'0 0.0
2018-Jun-18 21:57N 01°18' E 103°60'0 0.0
2018-Jun-18 21:30N 01°18' E 103°60'0 0.0
2018-Jun-18 20:54N 01°18' E 103°60'0 0.0
2018-Jun-18 20:23N 01°18' E 103°60'0 0.0
2018-Jun-18 19:57N 01°18' E 103°60'0 0.1
2018-Jun-18 19:27N 01°17' E 103°60'0 0.2
2018-Jun-18 18:41N 01°17' E 103°59'0 0.4
2018-Jun-18 18:30N 01°17' E 103°59'1 2.5
2018-Jun-18 17:57N 01°16' E 103°59'1 2.0
2018-Jun-18 17:30N 01°15' E 103°58'3 6.4
2018-Jun-18 16:59N 01°16' E 104°02'4 7.5
2018-Jun-18 16:30N 01°16' E 104°05'4 8.0
2018-Jun-18 15:59N 01°17' E 104°09'611.1
2018-Jun-18 15:29N 01°18' E 104°15'713.1
2018-Jun-18 14:55N 01°21' E 104°22'613.5
2018-Jun-18 14:30N 01°24' E 104°26'612.3
2018-Jun-18 13:59N 01°28' E 104°31'  
Track history (hours):
 
Tides and Currents Weather Stations Pressure Air Temp Water Temp Dewpoint Dewpoint Depression Visibility Wind Speed Wind Dir Waves Ship Positions

Federal Trident

Last reported at 2018-Jun-19 09:09 UTC. Time now 2018-Jun-23 14:10 UTC.
Position N 01°24' E 104°32'.

Length 190 m; draft 12.7 m.

Type: Cargo ship. MMSI: 538006466.

Date/timePositionNaut miles runAvg speedWind from/ knotsBaromVisibWave heightAir tempDewpointWater temp
2018-Jun-19 09:09N 01°24' E 104°32'212.8
2018-Jun-19 08:59N 01°24' E 104°30'612.3
2018-Jun-19 08:28N 01°21' E 104°24'612.0
2018-Jun-19 07:58N 01°17' E 104°20'612.3
2018-Jun-19 07:29N 01°16' E 104°14'612.6
2018-Jun-19 07:00N 01°15' E 104°08'510.2
2018-Jun-19 06:30N 01°15' E 104°03'4 7.5
2018-Jun-19 05:59N 01°17' E 103°59'0 0.7
2018-Jun-19 05:18N 01°18' E 103°60'0 0.0
2018-Jun-19 04:57N 01°18' E 103°60'0 0.0
2018-Jun-19 04:30N 01°18' E 103°60'0 0.0
2018-Jun-19 03:48N 01°18' E 103°60'0 0.0
2018-Jun-19 03:30N 01°18' E 103°60'0 0.0
2018-Jun-19 02:51N 01°18' E 103°60'0 0.0
2018-Jun-19 02:24N 01°18' E 103°60'0 0.0
2018-Jun-19 01:57N 01°18' E 103°60'0 0.0
2018-Jun-19 01:27N 01°18' E 103°60'0 0.1
2018-Jun-19 00:56N 01°18' E 103°60'0 0.0
2018-Jun-19 00:29N 01°18' E 103°60'0 0.0
2018-Jun-18 23:57N 01°18' E 103°60'0 0.1
2018-Jun-18 23:30N 01°18' E 103°60'0 0.0
2018-Jun-18 22:51N 01°18' E 103°60'0 0.0
2018-Jun-18 22:30N 01°18' E 103°60'0 0.0
2018-Jun-18 21:57N 01°18' E 103°60'0 0.0
2018-Jun-18 21:30N 01°18' E 103°60'0 0.0
2018-Jun-18 20:54N 01°18' E 103°60'0 0.0
2018-Jun-18 20:23N 01°18' E 103°60'0 0.0
2018-Jun-18 19:57N 01°18' E 103°60'0 0.1
2018-Jun-18 19:27N 01°17' E 103°60'0 0.2
2018-Jun-18 18:41N 01°17' E 103°59'0 0.4
2018-Jun-18 18:30N 01°17' E 103°59'1 2.5
2018-Jun-18 17:57N 01°16' E 103°59'1 2.0
2018-Jun-18 17:30N 01°15' E 103°58'3 6.4
2018-Jun-18 16:59N 01°16' E 104°02'4 7.5
2018-Jun-18 16:30N 01°16' E 104°05'4 8.0
2018-Jun-18 15:59N 01°17' E 104°09'611.1
2018-Jun-18 15:29N 01°18' E 104°15'713.1
2018-Jun-18 14:55N 01°21' E 104°22'613.5
2018-Jun-18 14:30N 01°24' E 104°26'612.3
2018-Jun-18 13:59N 01°28' E 104°31'  

Dump ship's entire track history